Messwerte Minneapolis

Temperatur

Temperatur
°C
1623985200 22.00 22.00 22
1623988800 23.00 23.00 20
1623992400 0.00 0.00
1623996000 1.00 1.00 18
1623999600 2.00 2.00 17
1624003200 3.00 3.00
1624006800 4.00 4.00 15
1624010400 5.00 5.00 16
1624014000 6.00 6.00 16
1624017600 7.00 7.00 21
1624021200 8.00 8.00 23
1624024800 9.00 9.00 25
1624028400 10.00 10.00 27
1624032000 11.00 11.00 28
1624035600 12.00 12.00 29
1624039200 13.00 13.00 31
1624042800 14.00 14.00 31
1624046400 15.00 15.00 32
1624050000 16.00 16.00 33
1624053600 17.00 17.00 32
1624057200 18.00 18.00 32
1624060800 19.00 19.00 31
1624064400 20.00 20.00 30
1624068000 21.00 21.00 28

Aktuellste Messwerte

Wettercharakter
Wetter: klar
Temperatur
26 °C
Feuchtigkeit
30 %
Wind
5 km/hWindrichtung: Süd
Luftdruck
1007 hPa
Messzeit: 18. Juni 2021, 22.00Datenquelle: METAR

Weitere Messstationen in der Nähe

Messstation Temperatur Entfernung
Minneapolis / Blaine 23 °C 14 km
Minneapolis 28 °C 22 km
St. Paul 25 °C 24 km
Minneapolis 25 °C 27 km
South St. Paul 24 °C 34 km
Buffalo 24 °C 40 km
Minneapolis 22 °C 49 km

Wind

Windrichtung Böen Mittelwind
° km/h km/h
1623985200 22.00 21.00 - 22.00 0
1623988800 23.00 22.00 - 23.00 0
1623992400 0.00 23.00 - 0.00
1623996000 1.00 0.00 - 1.00 0
1623999600 2.00 1.00 - 2.00 0
1624003200 3.00 2.00 - 3.00
1624006800 4.00 3.00 - 4.00 0
1624010400 5.00 4.00 - 5.00 0
1624014000 6.00 5.00 - 6.00 310° 5
1624017600 7.00 6.00 - 7.00 340° 10
1624021200 8.00 7.00 - 8.00 360° 10
1624024800 9.00 8.00 - 9.00 50° 10
1624028400 10.00 9.00 - 10.00 60° 10
1624032000 11.00 10.00 - 11.00 350° 10
1624035600 12.00 11.00 - 12.00 330° 15
1624039200 13.00 12.00 - 13.00 300° 20
1624042800 14.00 13.00 - 14.00 310° 35 20
1624046400 15.00 14.00 - 15.00 290° 30 25
1624050000 16.00 15.00 - 16.00 280° 40 20
1624053600 17.00 16.00 - 17.00 290° 60 30
1624057200 18.00 17.00 - 18.00 280° 50 20
1624060800 19.00 18.00 - 19.00 300° 20
1624064400 20.00 19.00 - 20.00 280° 15
1624068000 21.00 20.00 - 21.00 210° 5

Ihre Wetterstation

Fehlt Ihre Wetterstation auf unserem Portal?

Schreiben Sie an network@meteonews.ch

Klima

Wann ist es am wärmsten? Wann regnet es am wenigsten? Unsere Klimadaten geben Auskunft.